AerodromSadržaj METAR izveštaja
LYBEMETAR LYBE 251930Z 04004KT 3500 BR NSC 05/M00 Q1023 BECMG 3000=
LYBTMETAR LYBT 251930Z VRB01KT 6000 NSC 00/M01 Q1023 NOSIG=
LYKVMETAR LYKV 252000Z 00000KT 7000 NSC 02/02 Q1024 NOSIG=
LYNIMETAR LYNI 252000Z VRB02KT 6000 NSC 04/M01 Q1025 NOSIG=
LYVRMETAR LYVR 251930Z AUTO 04004KT CAVOK 03/M02 Q1024=
LYUZMETAR LYUZ 251930Z AUTO VRB02KT 9999 SCT049/// OVC062/// 05/M00 Q1023=
LYPGMETAR LYPG 252000Z 09002KT 0300 R18/0250N R36/0375N FG FEW010 SCT033 BKN080 06/06 Q1026 NOSIG=
LYTVMETAR LYTV 251930Z VRB01KT 9999 FEW030 SCT050 BKN080 08/07 Q1025=

Podaci učitani u: 2020-01-25 20:00:36 UTC

METAR, TAF, AIRMET, GAMET, SIGMET

Važna napomena: MET infоrmаciје nа оvim web strаnicаmа imајu infоrmаtivni kаrаktеr, nаmenjene su isključivo vаzduhоplоvnim kоrisnicima, nе smејu sе kоristiti zа bilо kоје kоmеrciјаlnе svrhе, i nе zаmеnjuјu dоkumеntаciјu zа lеt.